Time;durP1;ratioP1;P1;durP2;ratioP2;P2;SDS_P1;SDS_P2;PMS_P1;PMS_P2;Temp;Humidity;BMP_temperature;BMP_pressure;BME280_temperature;BME280_humidity;BME280_pressure;Samples;Min_cycle;Max_cycle;Signal;HPM_P1;HPM_P2
2023/09/08 00:00:46;;;;;;;2.30;1.02;;;18.90;99.90;;;;;;5017428;28;20497;-82
2023/09/08 00:03:11;;;;;;;2.25;1.13;;;18.90;99.90;;;;;;4931281;28;20035;-82
2023/09/08 00:05:37;;;;;;;1.80;1.00;;;19.00;99.90;;;;;;5034211;28;20045;-83
2023/09/08 00:08:03;;;;;;;2.50;1.02;;;19.00;99.90;;;;;;4945827;28;20066;-82
2023/09/08 00:10:29;;;;;;;2.65;1.17;;;18.90;99.90;;;;;;5024212;28;20025;-82
2023/09/08 00:12:55;;;;;;;1.63;0.95;;;19.00;99.90;;;;;;4947204;28;20043;-82
2023/09/08 00:15:20;;;;;;;2.65;1.58;;;19.00;99.90;;;;;;5017201;28;20027;-82
2023/09/08 00:17:47;;;;;;;2.13;1.00;;;19.00;99.90;;;;;;4942045;28;20031;-82
2023/09/08 00:20:13;;;;;;;2.28;1.00;;;19.00;99.90;;;;;;4967139;28;20413;-82
2023/09/08 00:22:39;;;;;;;1.88;1.17;;;18.90;99.90;;;;;;5038925;28;20031;-82
2023/09/08 00:25:05;;;;;;;2.63;1.10;;;19.00;99.90;;;;;;4966624;28;20719;-82
2023/09/08 00:27:31;;;;;;;1.90;1.00;;;19.00;99.90;;;;;;4948668;28;20031;-83
2023/09/08 00:29:58;;;;;;;2.05;0.90;;;18.90;99.90;;;;;;5032892;28;20511;-80
2023/09/08 00:32:23;;;;;;;2.38;1.27;;;19.00;99.90;;;;;;5033641;28;20506;-82
2023/09/08 00:34:49;;;;;;;2.05;1.05;;;18.80;99.90;;;;;;4933898;28;20023;-81
2023/09/08 00:37:15;;;;;;;3.15;1.10;;;18.70;99.90;;;;;;5033137;28;20441;-82
2023/09/08 00:39:40;;;;;;;2.47;1.33;;;18.80;99.90;;;;;;4941848;28;20042;-83
2023/09/08 00:42:09;;;;;;;2.50;0.88;;;18.70;99.90;;;;;;4949181;28;20035;-84
2023/09/08 00:44:35;;;;;;;2.10;1.00;;;18.70;99.90;;;;;;4949514;28;20100;-81
2023/09/08 00:47:00;;;;;;;2.28;1.20;;;18.70;99.90;;;;;;4942885;28;20479;-82
2023/09/08 00:49:26;;;;;;;2.20;1.33;;;18.70;99.90;;;;;;4933615;28;20031;-82
2023/09/08 00:51:52;;;;;;;2.63;1.48;;;18.50;99.90;;;;;;4939368;28;20387;-83
2023/09/08 00:54:18;;;;;;;2.67;1.33;;;18.30;99.90;;;;;;4948522;28;20505;-82
2023/09/08 00:56:46;;;;;;;1.90;1.00;;;18.30;99.90;;;;;;4945087;28;20023;-82
2023/09/08 00:59:12;;;;;;;2.72;1.20;;;18.20;99.90;;;;;;5015867;28;20509;-81
2023/09/08 01:01:38;;;;;;;2.10;1.30;;;18.20;99.90;;;;;;4944620;28;20031;-83
2023/09/08 01:04:04;;;;;;;2.45;1.20;;;17.90;99.90;;;;;;5032741;28;20038;-81
2023/09/08 01:06:32;;;;;;;1.95;1.10;;;17.80;99.90;;;;;;4945891;28;20080;-82
2023/09/08 01:08:58;;;;;;;2.00;1.30;;;17.90;99.90;;;;;;4963072;28;20042;-81
2023/09/08 01:11:25;;;;;;;1.83;0.98;;;18.00;99.90;;;;;;5043487;28;20579;-82
2023/09/08 01:13:51;;;;;;;2.25;1.52;;;18.00;99.90;;;;;;4972169;28;20061;-81
2023/09/08 01:16:17;;;;;;;3.17;1.30;;;17.90;99.90;;;;;;4971018;28;20027;-82
2023/09/08 01:18:45;;;;;;;2.67;1.30;;;17.60;99.90;;;;;;4955229;28;20035;-81
2023/09/08 01:21:14;;;;;;;2.88;1.42;;;17.60;99.90;;;;;;4987495;28;20151;-83
2023/09/08 01:23:59;;;;;;;3.67;1.83;;;17.50;99.90;;;;;;4968275;28;20030;-83
2023/09/08 01:26:30;;;;;;;3.03;1.60;;;17.40;99.90;;;;;;4968172;28;20033;-82
2023/09/08 01:28:56;;;;;;;2.65;1.25;;;17.30;99.90;;;;;;4972064;28;20099;-82
2023/09/08 01:31:22;;;;;;;3.15;2.00;;;17.20;99.90;;;;;;4968831;28;20034;-81
2023/09/08 01:33:48;;;;;;;3.15;1.73;;;17.10;99.90;;;;;;4989518;28;20034;-82
2023/09/08 01:36:14;;;;;;;4.10;1.73;;;17.10;99.90;;;;;;4954600;28;20035;-82
2023/09/08 01:38:40;;;;;;;3.10;1.95;;;17.10;99.90;;;;;;4955486;28;20041;-82
2023/09/08 01:41:05;;;;;;;3.05;2.03;;;17.00;99.90;;;;;;4961452;28;20038;-82
2023/09/08 01:43:31;;;;;;;3.97;1.98;;;17.00;99.90;;;;;;4989391;28;20080;-80
2023/09/08 01:45:57;;;;;;;4.40;2.00;;;16.90;99.90;;;;;;4970868;28;20496;-81
2023/09/08 01:48:22;;;;;;;2.30;1.75;;;16.90;99.90;;;;;;4967302;28;20046;-82
2023/09/08 01:50:48;;;;;;;2.30;1.58;;;16.80;99.90;;;;;;4971610;28;20022;-81
2023/09/08 01:53:14;;;;;;;2.50;1.80;;;16.80;99.90;;;;;;5003096;28;20065;-82
2023/09/08 01:55:39;;;;;;;3.28;2.25;;;16.80;99.90;;;;;;4970509;28;20015;-83
2023/09/08 01:58:05;;;;;;;2.75;2.10;;;16.80;99.90;;;;;;4963412;28;20417;-82
2023/09/08 02:00:31;;;;;;;2.63;1.98;;;16.70;99.90;;;;;;4970953;28;20035;-81
2023/09/08 02:02:57;;;;;;;6.63;2.38;;;16.70;99.90;;;;;;4968780;28;20044;-82
2023/09/08 02:05:22;;;;;;;3.53;2.28;;;16.70;99.90;;;;;;4971011;28;20149;-82
2023/09/08 02:07:49;;;;;;;2.47;1.63;;;16.70;99.90;;;;;;4962563;28;20538;-82
2023/09/08 02:10:14;;;;;;;3.97;1.92;;;16.70;99.90;;;;;;4970281;28;20056;-82
2023/09/08 02:12:40;;;;;;;2.88;2.00;;;16.70;99.90;;;;;;4982685;28;20065;-82
2023/09/08 02:15:07;;;;;;;2.60;1.95;;;16.60;99.90;;;;;;4970259;28;20122;-81
2023/09/08 02:17:33;;;;;;;2.50;2.10;;;16.60;99.90;;;;;;4966278;28;20026;-82
2023/09/08 02:19:59;;;;;;;2.65;1.95;;;16.60;99.90;;;;;;4974886;28;20041;-82
2023/09/08 02:22:24;;;;;;;3.15;2.08;;;16.60;99.90;;;;;;4968216;28;20061;-83
2023/09/08 02:24:51;;;;;;;3.40;2.08;;;16.50;99.90;;;;;;4966934;28;20027;-82
2023/09/08 02:27:19;;;;;;;2.45;1.95;;;16.40;99.90;;;;;;4970376;28;20515;-83
2023/09/08 02:29:47;;;;;;;2.85;1.98;;;16.30;99.90;;;;;;5007791;28;20023;-81
2023/09/08 02:32:14;;;;;;;3.22;1.98;;;16.30;99.90;;;;;;4961476;28;20046;-81
2023/09/08 02:34:42;;;;;;;2.85;2.08;;;16.30;99.90;;;;;;4967627;28;20042;-82
2023/09/08 02:37:08;;;;;;;2.78;1.77;;;16.20;99.90;;;;;;4970392;28;20048;-82
2023/09/08 02:39:34;;;;;;;2.92;1.85;;;16.20;99.90;;;;;;4967473;28;20069;-81
2023/09/08 02:42:00;;;;;;;2.47;1.88;;;16.20;99.90;;;;;;4983906;28;20037;-81
2023/09/08 02:44:27;;;;;;;5.07;1.90;;;16.10;99.90;;;;;;4968735;28;20079;-81
2023/09/08 02:46:53;;;;;;;3.67;1.90;;;16.10;99.90;;;;;;4970153;28;20037;-82
2023/09/08 02:49:19;;;;;;;3.00;1.90;;;16.10;99.90;;;;;;4955921;28;20026;-82
2023/09/08 02:51:45;;;;;;;2.50;2.03;;;16.00;99.90;;;;;;4953827;28;20042;-82
2023/09/08 02:54:10;;;;;;;3.25;1.80;;;16.00;99.90;;;;;;4968137;28;20022;-83
2023/09/08 02:56:36;;;;;;;2.58;2.25;;;15.90;99.90;;;;;;4974051;28;20031;-80
2023/09/08 02:59:02;;;;;;;3.85;2.40;;;15.90;99.90;;;;;;4971642;28;20038;-82
2023/09/08 03:01:28;;;;;;;2.97;2.08;;;15.90;99.90;;;;;;4970643;28;20022;-80
2023/09/08 03:03:54;;;;;;;4.97;2.08;;;15.90;99.90;;;;;;4970047;28;20121;-81
2023/09/08 03:06:21;;;;;;;2.63;2.08;;;15.80;99.90;;;;;;4970299;28;20027;-82
2023/09/08 03:08:47;;;;;;;4.07;2.47;;;15.80;99.90;;;;;;4969608;28;20444;-81
2023/09/08 03:11:13;;;;;;;3.60;3.00;;;15.80;99.90;;;;;;4963053;28;20026;-81
2023/09/08 03:13:39;;;;;;;3.38;2.70;;;15.70;99.90;;;;;;4970108;28;20095;-81
2023/09/08 03:16:06;;;;;;;2.90;2.42;;;15.70;99.90;;;;;;4986130;28;20026;-81
2023/09/08 03:18:33;;;;;;;4.28;3.45;;;15.70;99.90;;;;;;4962590;28;20034;-82
2023/09/08 03:21:08;;;;;;;3.00;2.50;;;15.70;99.90;;;;;;4964580;28;20034;-82
2023/09/08 03:23:38;;;;;;;3.45;2.95;;;15.70;99.90;;;;;;4961134;28;20030;-81
2023/09/08 03:26:04;;;;;;;3.25;2.72;;;15.60;99.90;;;;;;4964056;28;20113;-81
2023/09/08 03:28:32;;;;;;;2.78;2.33;;;15.60;99.90;;;;;;4966028;28;20045;-82
2023/09/08 03:31:00;;;;;;;4.45;2.90;;;15.60;99.90;;;;;;4967651;28;20027;-81
2023/09/08 03:33:26;;;;;;;4.05;3.13;;;15.60;99.90;;;;;;4969237;28;20503;-81
2023/09/08 03:35:52;;;;;;;4.65;2.92;;;15.50;99.90;;;;;;4964831;28;20061;-81
2023/09/08 03:38:18;;;;;;;5.25;3.47;;;15.50;99.90;;;;;;4969316;28;20034;-81
2023/09/08 03:40:44;;;;;;;3.78;3.25;;;15.50;99.90;;;;;;4969711;28;20018;-83
2023/09/08 03:43:10;;;;;;;3.70;2.75;;;15.40;99.90;;;;;;4967394;28;20478;-80
2023/09/08 03:45:36;;;;;;;3.25;2.95;;;15.40;99.90;;;;;;4966572;28;20026;-81
2023/09/08 03:48:01;;;;;;;4.07;3.63;;;15.30;99.90;;;;;;4953179;28;20070;-81
2023/09/08 03:50:28;;;;;;;4.10;3.63;;;15.40;99.90;;;;;;4969939;28;20453;-81
2023/09/08 03:52:54;;;;;;;3.95;3.25;;;15.40;99.90;;;;;;4952880;28;20069;-81
2023/09/08 03:55:20;;;;;;;3.00;2.45;;;15.40;99.90;;;;;;4965893;28;20057;-81
2023/09/08 03:57:45;;;;;;;3.20;2.90;;;15.30;99.90;;;;;;4986070;28;20477;-81
2023/09/08 04:00:12;;;;;;;3.35;2.80;;;15.30;99.90;;;;;;4965918;28;20091;-81
2023/09/08 04:02:42;;;;;;;3.25;2.90;;;15.30;99.90;;;;;;4960541;28;20030;-82
2023/09/08 04:05:10;;;;;;;4.20;2.25;;;15.30;99.90;;;;;;4968582;28;20034;-82
2023/09/08 04:07:36;;;;;;;3.13;2.83;;;15.20;99.90;;;;;;4960560;28;20397;-82
2023/09/08 04:10:03;;;;;;;3.33;3.03;;;15.20;99.90;;;;;;4964705;28;20023;-82
2023/09/08 04:12:28;;;;;;;4.55;3.67;;;15.20;99.90;;;;;;4962231;28;20042;-81
2023/09/08 04:14:54;;;;;;;4.18;3.38;;;15.20;99.90;;;;;;4972585;28;20035;-82
2023/09/08 04:17:20;;;;;;;6.25;4.40;;;15.20;99.90;;;;;;4968187;28;20363;-81
2023/09/08 04:19:47;;;;;;;4.28;3.65;;;15.20;99.90;;;;;;4967878;28;20074;-82
2023/09/08 04:22:12;;;;;;;5.30;4.00;;;15.20;99.90;;;;;;4966547;28;20065;-81
2023/09/08 04:24:38;;;;;;;5.30;4.10;;;15.10;99.90;;;;;;4975167;28;20029;-81
2023/09/08 04:27:04;;;;;;;5.05;4.53;;;15.10;99.90;;;;;;4964887;28;20436;-81
2023/09/08 04:29:30;;;;;;;4.50;4.10;;;15.10;99.90;;;;;;4953185;28;20018;-82
2023/09/08 04:31:56;;;;;;;4.78;4.38;;;15.10;99.90;;;;;;4968944;28;20553;-83
2023/09/08 04:34:21;;;;;;;5.22;4.22;;;15.20;99.90;;;;;;4965740;28;20073;-81
2023/09/08 04:36:47;;;;;;;5.38;4.88;;;15.00;99.90;;;;;;4960661;28;20026;-82
2023/09/08 04:39:15;;;;;;;4.50;3.47;;;15.10;99.90;;;;;;4986303;28;20485;-82
2023/09/08 04:41:41;;;;;;;5.10;4.20;;;15.10;99.90;;;;;;4964913;28;20036;-82
2023/09/08 04:44:06;;;;;;;4.35;3.88;;;15.10;99.90;;;;;;4962207;28;20125;-82
2023/09/08 04:46:35;;;;;;;4.47;3.97;;;15.10;99.90;;;;;;4965520;28;20025;-82
2023/09/08 04:49:00;;;;;;;4.88;3.90;;;15.10;99.90;;;;;;4986431;28;20163;-82
2023/09/08 04:51:26;;;;;;;4.60;4.07;;;15.10;99.90;;;;;;4961264;28;20065;-81
2023/09/08 04:53:52;;;;;;;5.00;3.75;;;15.20;99.90;;;;;;4965067;28;20087;-81
2023/09/08 04:56:18;;;;;;;4.72;4.13;;;15.10;99.90;;;;;;4964511;28;20026;-81
2023/09/08 04:58:44;;;;;;;4.05;3.30;;;15.10;99.90;;;;;;4945497;28;20065;-81
2023/09/08 05:01:11;;;;;;;4.93;4.43;;;15.00;99.90;;;;;;4952650;28;20493;-82
2023/09/08 05:03:37;;;;;;;5.15;4.55;;;15.00;99.90;;;;;;4965133;28;20038;-81
2023/09/08 05:06:03;;;;;;;5.22;4.72;;;15.00;99.90;;;;;;4984220;28;20034;-81
2023/09/08 05:08:29;;;;;;;5.43;4.88;;;15.00;99.90;;;;;;4960386;28;20079;-81
2023/09/08 05:10:55;;;;;;;4.88;4.47;;;15.00;99.90;;;;;;4984363;28;20125;-81
2023/09/08 05:13:26;;;;;;;5.10;4.20;;;15.00;99.90;;;;;;4973166;28;20046;-82
2023/09/08 05:15:59;;;;;;;5.15;4.65;;;15.00;99.90;;;;;;4967406;28;20381;-81
2023/09/08 05:18:27;;;;;;;5.70;5.18;;;15.00;99.90;;;;;;4960382;28;20109;-82
2023/09/08 05:20:53;;;;;;;5.25;4.75;;;15.00;99.90;;;;;;4951817;28;20034;-80
2023/09/08 05:23:19;;;;;;;5.20;4.70;;;15.00;99.90;;;;;;4960810;28;20068;-81
2023/09/08 05:25:45;;;;;;;5.22;4.72;;;15.00;99.90;;;;;;4985280;28;20035;-81
2023/09/08 05:28:11;;;;;;;6.18;4.68;;;15.00;99.90;;;;;;4967498;28;20549;-80
2023/09/08 05:30:37;;;;;;;5.03;4.38;;;15.00;99.90;;;;;;4985478;28;20076;-82
2023/09/08 05:33:03;;;;;;;4.97;4.57;;;15.10;99.90;;;;;;4950882;28;20385;-80
2023/09/08 05:35:29;;;;;;;6.38;5.22;;;15.10;99.90;;;;;;4964409;28;20026;-81
2023/09/08 05:37:55;;;;;;;5.05;4.57;;;15.10;99.90;;;;;;4950301;28;20031;-82
2023/09/08 05:40:23;;;;;;;6.28;4.90;;;15.20;99.90;;;;;;4966060;28;20027;-81
2023/09/08 05:42:49;;;;;;;5.13;4.65;;;15.20;99.90;;;;;;5000290;28;20039;-82
2023/09/08 05:45:15;;;;;;;6.45;4.82;;;15.30;99.90;;;;;;4951155;28;20029;-82
2023/09/08 05:47:41;;;;;;;5.95;4.60;;;15.30;99.90;;;;;;4967833;28;20060;-81
2023/09/08 05:50:08;;;;;;;6.18;3.67;;;15.30;99.90;;;;;;4963797;28;20022;-82
2023/09/08 05:52:34;;;;;;;4.75;3.85;;;15.40;99.90;;;;;;4951842;28;20026;-81
2023/09/08 05:55:00;;;;;;;4.15;3.20;;;15.40;99.90;;;;;;4971020;28;20084;-81
2023/09/08 05:57:25;;;;;;;4.03;3.55;;;15.50;99.90;;;;;;4971167;28;20034;-82
2023/09/08 05:59:51;;;;;;;5.35;3.65;;;15.60;99.90;;;;;;4966781;28;20451;-81
2023/09/08 06:02:17;;;;;;;4.00;3.10;;;15.60;99.90;;;;;;4965555;28;20031;-81
2023/09/08 06:04:43;;;;;;;5.45;2.75;;;15.60;99.90;;;;;;4961320;28;20489;-82
2023/09/08 06:07:08;;;;;;;5.07;3.22;;;15.80;99.90;;;;;;4954162;28;20546;-82
2023/09/08 06:09:35;;;;;;;4.85;3.25;;;16.10;99.90;;;;;;4970120;28;20362;-82
2023/09/08 06:12:01;;;;;;;4.25;2.92;;;16.20;99.90;;;;;;4970938;28;20125;-83
2023/09/08 06:14:26;;;;;;;3.33;2.95;;;16.40;99.90;;;;;;4970417;28;20030;-80
2023/09/08 06:16:52;;;;;;;4.38;3.08;;;16.40;99.90;;;;;;4969942;28;20416;-83
2023/09/08 06:19:18;;;;;;;3.42;2.85;;;16.60;99.90;;;;;;4955590;28;20034;-82
2023/09/08 06:21:44;;;;;;;4.38;3.53;;;16.70;99.90;;;;;;4971337;28;20034;-83
2023/09/08 06:24:11;;;;;;;4.43;3.28;;;16.90;99.90;;;;;;4965514;28;20033;-83
2023/09/08 06:26:38;;;;;;;4.93;3.15;;;17.10;99.90;;;;;;4970485;28;20022;-82
2023/09/08 06:29:04;;;;;;;4.45;2.90;;;17.20;99.90;;;;;;4959484;28;20398;-82
2023/09/08 06:31:30;;;;;;;3.25;2.72;;;17.40;99.90;;;;;;4959959;28;20034;-81
2023/09/08 06:33:56;;;;;;;3.05;2.22;;;17.50;99.90;;;;;;4960816;28;20236;-81
2023/09/08 06:36:22;;;;;;;3.55;2.55;;;17.80;99.90;;;;;;4961128;28;20075;-82
2023/09/08 06:38:47;;;;;;;5.18;2.92;;;17.90;99.90;;;;;;4967394;28;20026;-82
2023/09/08 06:41:13;;;;;;;3.38;2.45;;;18.10;99.90;;;;;;4968837;28;20104;-82
2023/09/08 06:43:40;;;;;;;6.18;4.13;;;18.20;99.90;;;;;;4960447;28;20033;-82
2023/09/08 06:46:13;;;;;;;4.93;2.50;;;18.50;99.90;;;;;;4960261;28;20426;-84
2023/09/08 06:48:39;;;;;;;4.22;2.85;;;18.60;99.90;;;;;;4965933;28;20121;-82
2023/09/08 06:51:05;;;;;;;4.00;2.70;;;19.00;99.90;;;;;;4969762;28;20034;-82
2023/09/08 06:53:32;;;;;;;3.55;2.65;;;19.10;99.90;;;;;;4966658;28;20026;-83
2023/09/08 06:55:58;;;;;;;5.22;3.53;;;19.20;99.90;;;;;;4960088;28;20249;-83
2023/09/08 06:58:23;;;;;;;6.15;2.83;;;19.40;99.90;;;;;;4954326;28;20539;-86
2023/09/08 07:00:50;;;;;;;2.65;2.17;;;19.60;99.90;;;;;;4969146;28;20037;-83
2023/09/08 07:03:16;;;;;;;3.85;2.63;;;19.70;99.90;;;;;;4952968;28;20026;-81
2023/09/08 07:05:42;;;;;;;3.60;2.97;;;19.80;99.90;;;;;;4968221;28;20037;-83
2023/09/08 07:08:11;;;;;;;3.65;2.75;;;20.10;99.90;;;;;;4959769;28;20038;-83
2023/09/08 07:10:38;;;;;;;4.63;2.40;;;20.20;99.90;;;;;;4955138;28;20163;-81
2023/09/08 07:13:04;;;;;;;3.80;2.55;;;20.30;99.90;;;;;;4966529;28;20396;-82
2023/09/08 07:15:30;;;;;;;4.70;2.38;;;20.50;99.90;;;;;;4966659;28;20037;-83
2023/09/08 07:17:56;;;;;;;3.85;2.67;;;20.60;99.90;;;;;;4935023;28;20065;-83
2023/09/08 07:20:22;;;;;;;4.10;2.55;;;20.70;99.90;;;;;;4950348;28;20798;-82
2023/09/08 07:22:48;;;;;;;2.58;1.80;;;20.90;99.90;;;;;;4941211;28;20031;-83
2023/09/08 07:25:14;;;;;;;4.00;1.92;;;21.00;99.90;;;;;;4963078;28;20058;-84
2023/09/08 07:27:39;;;;;;;2.80;2.47;;;21.20;99.90;;;;;;4980341;28;20043;-82
2023/09/08 07:30:07;;;;;;;3.75;2.25;;;21.20;99.90;;;;;;4937131;28;20325;-82
2023/09/08 07:32:33;;;;;;;3.17;2.47;;;21.40;99.90;;;;;;4981260;28;20030;-82
2023/09/08 07:35:00;;;;;;;2.05;1.67;;;21.50;99.90;;;;;;4948793;28;20030;-84
2023/09/08 07:37:26;;;;;;;3.17;1.98;;;21.70;99.90;;;;;;4964010;28;20390;-83
2023/09/08 07:39:52;;;;;;;3.50;2.38;;;21.80;99.90;;;;;;4947549;28;20118;-82
2023/09/08 07:42:18;;;;;;;3.17;2.25;;;21.90;99.90;;;;;;4933755;28;20030;-83
2023/09/08 07:44:45;;;;;;;4.75;1.50;;;22.00;99.90;;;;;;4941645;28;20076;-83
2023/09/08 07:47:11;;;;;;;3.58;2.00;;;22.20;99.90;;;;;;4945536;28;20041;-84
2023/09/08 07:49:37;;;;;;;3.58;2.63;;;22.40;99.90;;;;;;4950321;28;20121;-83
2023/09/08 07:52:04;;;;;;;3.42;2.50;;;22.30;99.90;;;;;;4967206;28;20109;-82
2023/09/08 07:54:30;;;;;;;2.90;2.30;;;22.30;99.90;;;;;;4937297;28;20030;-83
2023/09/08 07:56:56;;;;;;;2.88;1.98;;;22.50;99.90;;;;;;4981761;28;20035;-82
2023/09/08 07:59:21;;;;;;;2.85;1.75;;;22.70;99.90;;;;;;4963293;28;20034;-83
2023/09/08 08:01:47;;;;;;;3.28;2.28;;;22.80;99.90;;;;;;4934557;28;20143;-84
2023/09/08 08:04:13;;;;;;;3.60;1.88;;;22.80;99.90;;;;;;4940059;28;20027;-83
2023/09/08 08:06:38;;;;;;;4.10;2.53;;;22.90;99.90;;;;;;4950017;28;20038;-81
2023/09/08 08:09:04;;;;;;;2.72;1.63;;;23.10;99.90;;;;;;4954563;28;20050;-82
2023/09/08 08:11:30;;;;;;;2.45;1.63;;;23.40;99.90;;;;;;4965980;28;20498;-82
2023/09/08 08:13:56;;;;;;;2.33;1.73;;;23.60;99.90;;;;;;4999865;28;20073;-83
2023/09/08 08:16:23;;;;;;;2.88;1.58;;;23.70;99.90;;;;;;4969129;28;20492;-82
2023/09/08 08:18:49;;;;;;;3.40;2.17;;;23.70;99.90;;;;;;4952248;28;20080;-81
2023/09/08 08:21:14;;;;;;;2.60;1.75;;;23.60;99.90;;;;;;4964275;28;20434;-82
2023/09/08 08:23:40;;;;;;;2.55;1.38;;;23.90;99.90;;;;;;4966497;28;20034;-82
2023/09/08 08:26:06;;;;;;;2.20;1.73;;;24.10;99.90;;;;;;4985510;28;20034;-82
2023/09/08 08:28:32;;;;;;;2.78;1.80;;;24.20;99.90;;;;;;4967818;28;20045;-81
2023/09/08 08:30:58;;;;;;;4.10;2.20;;;24.40;99.90;;;;;;4952194;28;20121;-82
2023/09/08 08:33:25;;;;;;;2.35;1.50;;;24.30;99.90;;;;;;4951473;28;20026;-83
2023/09/08 08:35:52;;;;;;;2.67;1.35;;;24.50;99.90;;;;;;4967409;28;20030;-84
2023/09/08 08:38:18;;;;;;;2.78;1.98;;;24.80;99.90;;;;;;4964129;28;20034;-83
2023/09/08 08:40:44;;;;;;;2.65;1.70;;;24.90;99.90;;;;;;4963599;28;20466;-84
2023/09/08 08:43:10;;;;;;;3.00;1.42;;;24.80;99.90;;;;;;4951776;28;20067;-82
2023/09/08 08:45:38;;;;;;;2.65;1.70;;;24.90;99.90;;;;;;4950861;28;20508;-81
2023/09/08 08:48:05;;;;;;;2.28;1.52;;;25.10;99.90;;;;;;4972939;28;20049;-82
2023/09/08 08:50:32;;;;;;;2.45;1.73;;;25.20;99.90;;;;;;4964264;28;20026;-85
2023/09/08 08:52:58;;;;;;;2.05;1.42;;;25.10;99.90;;;;;;4968604;28;20034;-83
2023/09/08 08:55:29;;;;;;;3.78;1.83;;;25.30;99.90;;;;;;4971963;28;20034;-84
2023/09/08 08:58:02;;;;;;;2.38;1.65;;;25.30;99.90;;;;;;4965143;28;20034;-83
2023/09/08 09:00:28;;;;;;;3.75;1.58;;;25.50;99.90;;;;;;4951032;28;20109;-82
2023/09/08 09:02:55;;;;;;;3.55;2.20;;;25.70;99.90;;;;;;4965996;28;20046;-83
2023/09/08 09:05:21;;;;;;;3.75;1.70;;;25.80;99.90;;;;;;4949422;28;20399;-81
2023/09/08 09:07:49;;;;;;;3.30;1.90;;;25.90;99.90;;;;;;4968319;28;20048;-83
2023/09/08 09:10:15;;;;;;;3.10;1.85;;;25.90;99.90;;;;;;4999427;28;20481;-84
2023/09/08 09:12:41;;;;;;;2.33;1.65;;;26.10;99.90;;;;;;4959616;28;20143;-83
2023/09/08 09:15:11;;;;;;;2.22;1.70;;;26.10;99.90;;;;;;4952230;28;20473;-84
2023/09/08 09:17:38;;;;;;;2.65;2.00;;;26.10;99.90;;;;;;4965496;28;20027;-83
2023/09/08 09:20:19;;;;;;;3.67;1.95;;;26.30;99.90;;;;;;4959209;28;20076;-83
2023/09/08 09:22:49;;;;;;;2.35;1.98;;;26.00;99.90;;;;;;4952105;28;20034;-84
2023/09/08 09:25:25;;;;;;;3.50;1.70;;;26.00;99.90;;;;;;4977942;28;20025;-84
2023/09/08 09:27:56;;;;;;;2.30;1.63;;;26.30;99.90;;;;;;4973789;28;20042;-84
2023/09/08 09:30:23;;;;;;;2.33;1.80;;;26.60;99.90;;;;;;4987502;28;20052;-84
2023/09/08 09:33:02;;;;;;;2.75;1.95;;;26.20;99.90;;;;;;4971410;28;20033;-83
2023/09/08 09:35:49;;;;;;;2.35;1.30;;;26.40;99.90;;;;;;4966678;28;20022;-83
2023/09/08 09:38:16;;;;;;;4.68;1.55;;;26.70;99.90;;;;;;4968357;28;20410;-83
2023/09/08 09:40:42;;;;;;;2.80;2.13;;;26.70;99.90;;;;;;4962292;28;20488;-83
2023/09/08 09:43:09;;;;;;;2.45;1.38;;;26.70;99.90;;;;;;4988460;28;20110;-83
2023/09/08 09:45:36;;;;;;;2.47;1.60;;;26.90;99.90;;;;;;4972118;28;20103;-83
2023/09/08 09:48:06;;;;;;;3.28;1.50;;;27.10;99.90;;;;;;4966842;28;20476;-82
2023/09/08 09:50:38;;;;;;;2.45;1.73;;;27.00;99.90;;;;;;4984808;28;20049;-83
2023/09/08 09:53:11;;;;;;;3.08;1.42;;;27.20;99.90;;;;;;4973227;28;20030;-83
2023/09/08 09:55:38;;;;;;;2.53;1.48;;;27.20;99.90;;;;;;4987960;28;20446;-83
2023/09/08 09:58:05;;;;;;;3.13;1.60;;;27.30;99.90;;;;;;4959015;28;20076;-84
2023/09/08 10:00:34;;;;;;;3.67;2.10;;;27.20;99.90;;;;;;4977498;28;20434;-82
2023/09/08 10:03:00;;;;;;;2.85;1.70;;;27.40;99.90;;;;;;4968383;28;20342;-86
2023/09/08 10:05:27;;;;;;;1.90;1.42;;;27.30;99.90;;;;;;4954849;28;20034;-85
2023/09/08 10:07:53;;;;;;;2.40;1.70;;;27.70;99.90;;;;;;4983856;28;20507;-83
2023/09/08 10:10:20;;;;;;;2.75;1.67;;;27.80;99.90;;;;;;4958446;28;20050;-86
2023/09/08 10:12:52;;;;;;;2.10;1.25;;;27.80;99.90;;;;;;4976117;28;20050;-84
2023/09/08 10:15:23;;;;;;;1.77;1.20;;;28.10;99.90;;;;;;4986018;28;20125;-84
2023/09/08 10:17:55;;;;;;;4.15;1.65;;;27.80;99.90;;;;;;4969525;28;20146;-84
2023/09/08 10:20:23;;;;;;;2.28;1.58;;;27.60;99.90;;;;;;4966717;28;20035;-84
2023/09/08 10:22:55;;;;;;;2.13;1.60;;;27.70;99.90;;;;;;4984271;28;20035;-84
2023/09/08 10:25:24;;;;;;;2.35;1.42;;;27.70;99.90;;;;;;4954496;28;20501;-83
2023/09/08 10:27:50;;;;;;;2.83;1.52;;;28.10;99.90;;;;;;4983900;28;20034;-84
2023/09/08 10:30:17;;;;;;;2.30;1.42;;;28.10;99.90;;;;;;4967070;28;20030;-83
2023/09/08 10:32:43;;;;;;;2.15;1.30;;;28.20;99.90;;;;;;4984732;28;20361;-86
2023/09/08 10:35:10;;;;;;;2.28;1.77;;;28.50;99.90;;;;;;4956781;28;20022;-84
2023/09/08 10:37:35;;;;;;;3.05;1.35;;;28.30;99.90;;;;;;4947560;28;20069;-84
2023/09/08 10:40:26;;;;;;;3.28;1.60;;;28.20;99.90;;;;;;4968648;28;20057;-84
2023/09/08 10:43:07;;;;;;;1.92;1.17;;;28.60;99.90;;;;;;4953790;28;20395;-83
2023/09/08 10:45:32;;;;;;;3.17;1.30;;;28.90;99.90;;;;;;4969445;28;20145;-85
2023/09/08 10:47:58;;;;;;;2.75;1.40;;;28.60;99.90;;;;;;4987278;28;20121;-84
2023/09/08 10:50:32;;;;;;;1.95;1.38;;;28.70;99.90;;;;;;4969250;28;20101;-83
2023/09/08 10:53:10;;;;;;;2.20;1.48;;;28.80;99.90;;;;;;4968637;28;20108;-85
2023/09/08 10:55:39;;;;;;;2.43;1.70;;;28.80;99.90;;;;;;4953424;28;20129;-84
2023/09/08 10:58:05;;;;;;;3.65;1.60;;;28.70;99.90;;;;;;4964025;28;20087;-85
2023/09/08 11:00:46;;;;;;;5.72;2.30;;;28.70;99.90;;;;;;4969513;28;20031;-86
2023/09/08 11:03:13;;;;;;;3.13;2.17;;;28.70;99.90;;;;;;4965742;28;20062;-84
2023/09/08 11:05:40;;;;;;;3.40;1.50;;;28.60;99.90;;;;;;4969466;28;20084;-84
2023/09/08 11:08:06;;;;;;;2.40;1.60;;;29.20;99.90;;;;;;4969743;28;20469;-84
2023/09/08 11:10:32;;;;;;;3.85;1.90;;;29.20;99.90;;;;;;4987536;28;20022;-84
2023/09/08 11:12:59;;;;;;;2.78;1.27;;;29.00;99.90;;;;;;5033587;28;20459;-81
2023/09/08 11:15:25;;;;;;;1.63;1.25;;;29.10;99.90;;;;;;4958796;28;20023;-83
2023/09/08 11:17:51;;;;;;;3.47;1.27;;;28.90;99.90;;;;;;4959896;28;20041;-82
2023/09/08 11:20:26;;;;;;;2.95;1.30;;;29.40;99.90;;;;;;4986576;28;20034;-84
2023/09/08 11:22:52;;;;;;;2.70;1.40;;;29.20;99.90;;;;;;4964273;28;20031;-84
2023/09/08 11:25:20;;;;;;;1.60;0.88;;;29.40;99.90;;;;;;4969695;28;20019;-84
2023/09/08 11:27:46;;;;;;;3.35;1.40;;;29.40;99.90;;;;;;4964314;28;20033;-85
2023/09/08 11:30:13;;;;;;;1.70;1.27;;;29.10;99.90;;;;;;4969520;28;20549;-85
2023/09/08 11:32:39;;;;;;;2.33;1.60;;;29.10;99.90;;;;;;4973292;28;20262;-83
2023/09/08 11:35:09;;;;;;;1.85;1.30;;;29.30;99.90;;;;;;4974202;28;20030;-85
2023/09/08 11:37:41;;;;;;;3.95;1.20;;;29.40;99.90;;;;;;4986285;28;20496;-85
2023/09/08 11:40:12;;;;;;;2.33;1.13;;;29.90;99.90;;;;;;4948948;28;20034;-84
2023/09/08 11:42:45;;;;;;;1.88;1.38;;;29.90;99.90;;;;;;4968249;28;20039;-85
2023/09/08 11:45:13;;;;;;;2.17;1.27;;;29.60;99.90;;;;;;4970685;28;20041;-86
2023/09/08 11:47:43;;;;;;;2.10;1.20;;;29.60;99.90;;;;;;4969685;28;20066;-86
2023/09/08 11:50:15;;;;;;;2.08;0.90;;;29.80;99.90;;;;;;4968869;28;20083;-85
2023/09/08 11:52:46;;;;;;;2.83;1.10;;;30.00;99.90;;;;;;4957513;28;20482;-86
2023/09/08 11:55:13;;;;;;;2.65;1.20;;;30.20;99.90;;;;;;4968265;28;20039;-85
2023/09/08 11:57:40;;;;;;;2.15;1.25;;;30.10;99.90;;;;;;4953486;28;20347;-85
2023/09/08 12:00:09;;;;;;;1.50;0.98;;;29.60;99.90;;;;;;4970407;28;20026;-85
2023/09/08 12:02:38;;;;;;;2.30;1.38;;;29.50;99.90;;;;;;4967733;28;20693;-85
2023/09/08 12:05:04;;;;;;;1.92;1.23;;;29.60;99.90;;;;;;4961401;28;20026;-85
2023/09/08 12:07:30;;;;;;;3.35;1.00;;;29.90;99.90;;;;;;4952142;28;20111;-85
2023/09/08 12:09:56;;;;;;;1.60;1.05;;;29.90;99.90;;;;;;4968652;28;20170;-86
2023/09/08 12:12:21;;;;;;;2.15;0.95;;;29.80;99.90;;;;;;4955104;28;20043;-86
2023/09/08 12:14:47;;;;;;;2.25;0.95;;;30.00;99.90;;;;;;4961542;28;20038;-83
2023/09/08 12:17:16;;;;;;;1.73;0.80;;;30.00;99.90;;;;;;4961344;28;20023;-86
2023/09/08 12:19:42;;;;;;;1.95;0.80;;;30.20;99.90;;;;;;4949347;28;20022;-88
2023/09/08 12:22:11;;;;;;;1.52;0.90;;;30.30;99.90;;;;;;4967211;28;20379;-85
2023/09/08 12:24:52;;;;;;;2.78;0.95;;;30.10;99.90;;;;;;4965146;28;20031;-84
2023/09/08 12:27:19;;;;;;;2.10;0.90;;;30.00;99.90;;;;;;4947182;28;20046;-85
2023/09/08 12:30:00;;;;;;;1.60;0.90;;;30.20;99.90;;;;;;4963091;28;20080;-85
2023/09/08 12:32:28;;;;;;;5.00;1.20;;;30.00;99.90;;;;;;4961640;28;20027;-88
2023/09/08 12:34:54;;;;;;;2.33;0.98;;;29.80;99.90;;;;;;4963589;28;20481;-86
2023/09/08 12:37:22;;;;;;;1.65;0.80;;;29.70;99.90;;;;;;4949844;28;20023;-84
2023/09/08 12:39:47;;;;;;;1.40;0.80;;;29.80;99.90;;;;;;4962228;28;20039;-85
2023/09/08 12:42:13;;;;;;;1.50;0.90;;;29.80;99.90;;;;;;4949953;28;20042;-85
2023/09/08 12:44:38;;;;;;;2.30;0.88;;;29.70;99.90;;;;;;4949729;28;20033;-83
2023/09/08 12:47:04;;;;;;;1.90;1.08;;;30.10;99.90;;;;;;4949317;28;20121;-88